createdAt,value
2023-04-10T00:00:43.545Z,100198.50
2023-04-10T00:03:11.108Z,100191.75
2023-04-10T00:05:38.497Z,100182.78
2023-04-10T00:08:05.722Z,100179.41
2023-04-10T00:10:33.819Z,100174.31
2023-04-10T00:13:01.432Z,100169.97
2023-04-10T00:15:29.201Z,100160.28
2023-04-10T00:17:56.258Z,100154.97
2023-04-10T00:20:26.596Z,100140.94
2023-04-10T00:22:53.529Z,100130.31
2023-04-10T00:25:20.639Z,100128.59
2023-04-10T00:27:47.640Z,100107.44
2023-04-10T00:30:14.923Z,100113.59
2023-04-10T00:32:42.257Z,100104.03
2023-04-10T00:35:09.711Z,100096.91
2023-04-10T00:37:36.976Z,100086.50
2023-04-10T00:40:05.073Z,100081.19
2023-04-10T00:42:32.397Z,100087.59
2023-04-10T00:45:00.346Z,100087.59
2023-04-10T00:47:28.517Z,100071.63
2023-04-10T00:49:55.750Z,100071.88
2023-04-10T00:52:23.165Z,100067.38
2023-04-10T00:54:50.235Z,100067.63
2023-04-10T00:57:18.092Z,100064.03
2023-04-10T00:59:45.425Z,100057.97
2023-04-10T01:02:13.674Z,100050.84
2023-04-10T01:04:41.385Z,100055.31
2023-04-10T01:07:33.556Z,100048.31
2023-04-10T01:10:05.238Z,100037.81
2023-04-10T01:12:44.123Z,100028.25
2023-04-10T01:15:12.788Z,100036.94
2023-04-10T01:17:42.816Z,100025.59
2023-04-10T01:20:32.109Z,100023.91
2023-04-10T01:23:42.537Z,100017.63
2023-04-10T01:26:12.066Z,100020.28
2023-04-10T01:29:02.170Z,100011.56
2023-04-10T01:31:42.250Z,100016.06
2023-04-10T01:34:22.434Z,100007.31
2023-04-10T01:36:54.352Z,99995.88
2023-04-10T01:39:23.256Z,100010.13
2023-04-10T01:41:56.958Z,100004.81
2023-04-10T01:44:27.941Z,99986.19
2023-04-10T01:46:56.765Z,99991.63
2023-04-10T01:49:26.938Z,99983.78
2023-04-10T01:51:58.589Z,99991.91
2023-04-10T01:54:32.022Z,99977.75
2023-04-10T01:57:00.905Z,99971.56
2023-04-10T01:59:28.192Z,99960.09
2023-04-10T02:02:00.273Z,99964.69
2023-04-10T02:04:28.069Z,99952.34
2023-04-10T02:07:03.349Z,99947.03
2023-04-10T02:09:33.319Z,99949.84
2023-04-10T02:12:07.567Z,99938.34
2023-04-10T02:14:39.209Z,99936.66
2023-04-10T02:17:09.264Z,99927.09
2023-04-10T02:19:38.265Z,99918.31
2023-04-10T02:22:06.545Z,99913.94
2023-04-10T02:24:34.527Z,99912.25
2023-04-10T02:27:01.969Z,99897.16
2023-04-10T02:29:28.992Z,99890.97
2023-04-10T02:31:56.467Z,99877.13
2023-04-10T02:34:23.593Z,99876.97
2023-04-10T02:36:50.565Z,99878.69
2023-04-10T02:39:17.533Z,99867.34
2023-04-10T02:41:44.498Z,99860.31
2023-04-10T02:44:11.423Z,99859.34
2023-04-10T02:46:38.402Z,99857.66
2023-04-10T02:49:05.475Z,99847.97
2023-04-10T02:51:36.529Z,99841.00
2023-04-10T02:54:03.542Z,99838.34
2023-04-10T02:56:30.503Z,99833.03
2023-04-10T02:58:57.585Z,99829.50
2023-04-10T03:01:24.608Z,99820.69
2023-04-10T03:03:51.671Z,99811.00
2023-04-10T03:06:18.763Z,99803.03
2023-04-10T03:08:45.691Z,99786.38
2023-04-10T03:11:12.693Z,99778.41
2023-04-10T03:13:39.713Z,99768.47
2023-04-10T03:16:07.454Z,99753.50
2023-04-10T03:18:35.238Z,99753.50
2023-04-10T03:21:05.264Z,99741.19
2023-04-10T03:23:32.244Z,99725.38
2023-04-10T03:25:59.428Z,99730.69
2023-04-10T03:28:26.404Z,99717.50
2023-04-10T03:30:53.314Z,99723.81
2023-04-10T03:33:20.587Z,99714.00
2023-04-10T03:35:47.868Z,99702.56
2023-04-10T03:38:15.014Z,99696.38
2023-04-10T03:40:41.937Z,99690.22
2023-04-10T03:43:08.994Z,99678.03
2023-04-10T03:45:36.035Z,99676.22
2023-04-10T03:48:03.097Z,99675.22
2023-04-10T03:50:30.048Z,99669.22
2023-04-10T03:52:57.023Z,99663.63
2023-04-10T03:55:23.938Z,99656.63
2023-04-10T03:57:50.858Z,99658.56
2023-04-10T04:00:18.249Z,99653.41
2023-04-10T04:02:45.452Z,99653.25
2023-04-10T04:05:12.684Z,99643.63
2023-04-10T04:07:39.873Z,99637.31
2023-04-10T04:10:07.343Z,99635.66
2023-04-10T04:12:34.277Z,99630.34
2023-04-10T04:15:01.232Z,99625.97
2023-04-10T04:17:28.162Z,99621.50
2023-04-10T04:19:55.086Z,99614.38
2023-04-10T04:22:22.078Z,99608.22
2023-04-10T04:24:48.999Z,99600.34
2023-04-10T04:27:16.450Z,99593.38
2023-04-10T04:29:43.456Z,99589.72
2023-04-10T04:32:10.449Z,99582.59
2023-04-10T04:34:37.487Z,99578.28
2023-04-10T04:37:05.791Z,99578.28
2023-04-10T04:39:32.835Z,99572.13
2023-04-10T04:41:59.848Z,99552.50
2023-04-10T04:44:26.851Z,99552.66
2023-04-10T04:46:53.768Z,99547.34
2023-04-10T04:49:20.866Z,99546.75
2023-04-10T04:51:47.915Z,99549.41
2023-04-10T04:54:14.929Z,99545.66
2023-04-10T04:56:41.927Z,99545.53
2023-04-10T04:59:08.936Z,99542.72
2023-04-10T05:01:36.095Z,99538.41
2023-04-10T05:04:03.254Z,99540.91
2023-04-10T05:06:30.242Z,99520.63
2023-04-10T05:08:57.129Z,99527.63
2023-04-10T05:11:24.093Z,99525.22
2023-04-10T05:13:51.078Z,99520.34
2023-04-10T05:16:18.078Z,99515.28
2023-04-10T05:18:45.118Z,99513.47
2023-04-10T05:21:12.045Z,99518.06
2023-04-10T05:23:39.015Z,99516.25
2023-04-10T05:26:06.502Z,99517.25
2023-04-10T05:28:33.411Z,99524.38
2023-04-10T05:31:00.357Z,99522.56
2023-04-10T05:33:27.360Z,99525.06
2023-04-10T05:35:54.799Z,99520.78
2023-04-10T05:38:21.862Z,99529.09
2023-04-10T05:40:48.855Z,99518.47
2023-04-10T05:43:15.925Z,99513.66
2023-04-10T05:45:45.903Z,99508.50
2023-04-10T05:48:12.968Z,99514.16
2023-04-10T05:50:40.006Z,99508.53
2023-04-10T05:53:06.971Z,99495.13
2023-04-10T05:55:34.297Z,99495.97
2023-04-10T05:58:01.328Z,99486.16
2023-04-10T06:00:28.356Z,99490.53
2023-04-10T06:02:55.446Z,99502.84
2023-04-10T06:05:22.678Z,99501.59
2023-04-10T06:07:49.666Z,99494.59
2023-04-10T06:10:17.329Z,99507.75
2023-04-10T06:12:44.326Z,99507.56
2023-04-10T06:15:11.861Z,99507.88
2023-04-10T06:17:47.950Z,99502.81
2023-04-10T06:20:15.082Z,99499.47
2023-04-10T06:22:42.110Z,99526.34
2023-04-10T06:25:09.636Z,99527.19
2023-04-10T06:27:36.838Z,99527.44
2023-04-10T06:30:04.185Z,99535.41
2023-04-10T06:32:31.982Z,99543.38
2023-04-10T06:34:59.524Z,99539.88
2023-04-10T06:37:31.720Z,99545.19
2023-04-10T06:40:10.586Z,99533.72
2023-04-10T06:42:38.361Z,99539.16
2023-04-10T06:45:06.239Z,99536.66
2023-04-10T06:47:33.336Z,99543.78
2023-04-10T06:50:00.498Z,99544.72
2023-04-10T06:52:27.695Z,99549.34
2023-04-10T06:54:54.715Z,99555.50
2023-04-10T06:57:21.801Z,99549.34
2023-04-10T06:59:49.220Z,99550.34
2023-04-10T07:02:16.290Z,99556.59
2023-04-10T07:04:43.377Z,99560.28
2023-04-10T07:07:12.951Z,99552.22
2023-04-10T07:09:40.450Z,99550.97
2023-04-10T07:12:07.599Z,99544.44
2023-04-10T07:14:36.073Z,99538.00
2023-04-10T07:17:06.462Z,99539.56
2023-04-10T07:19:33.539Z,99535.00
2023-04-10T07:22:01.985Z,99538.03
2023-04-10T07:24:29.074Z,99544.28
2023-04-10T07:26:57.766Z,99541.19
2023-04-10T07:29:25.067Z,99537.78
2023-04-10T07:31:52.291Z,99525.09
2023-04-10T07:34:19.621Z,99518.28
2023-04-10T07:36:47.695Z,99531.25
2023-04-10T07:39:14.790Z,99528.78
2023-04-10T07:41:42.430Z,99521.13
2023-04-10T07:44:09.702Z,99517.25
2023-04-10T07:46:37.274Z,99529.44
2023-04-10T07:49:06.136Z,99535.19
2023-04-10T07:51:35.286Z,99541.19
2023-04-10T07:54:04.267Z,99546.25
2023-04-10T07:56:34.238Z,99556.63
2023-04-10T07:59:01.949Z,99554.41
2023-04-10T08:01:30.170Z,99547.84
2023-04-10T08:03:58.060Z,99555.31
2023-04-10T08:06:26.598Z,99551.44
2023-04-10T08:08:54.408Z,99566.63
2023-04-10T08:11:32.545Z,99558.94
2023-04-10T08:14:05.995Z,99559.47
2023-04-10T08:16:36.538Z,99571.97
2023-04-10T08:19:04.506Z,99566.19
2023-04-10T08:21:33.363Z,99564.50
2023-04-10T08:24:03.362Z,99566.59
2023-04-10T08:26:31.114Z,99556.69
2023-04-10T08:29:00.534Z,99556.22
2023-04-10T08:31:29.385Z,99554.72
2023-04-10T08:33:57.912Z,99561.09
2023-04-10T08:36:27.075Z,99558.03
2023-04-10T08:38:54.386Z,99548.00
2023-04-10T08:41:21.690Z,99546.63
2023-04-10T08:43:50.360Z,99539.38
2023-04-10T08:46:21.031Z,99548.78
2023-04-10T08:49:00.123Z,99550.88
2023-04-10T08:51:32.659Z,99549.03
2023-04-10T08:54:07.130Z,99548.19
2023-04-10T08:56:36.596Z,99541.91
2023-04-10T08:59:03.992Z,99538.25
2023-04-10T09:01:31.677Z,99548.63
2023-04-10T09:03:59.786Z,99544.88
2023-04-10T09:06:27.662Z,99547.16
2023-04-10T09:08:54.894Z,99540.56
2023-04-10T09:11:22.195Z,99541.56
2023-04-10T09:13:49.276Z,99539.13
2023-04-10T09:16:16.315Z,99543.34
2023-04-10T09:18:44.581Z,99541.06
2023-04-10T09:21:13.559Z,99549.66
2023-04-10T09:23:43.031Z,99545.28
2023-04-10T09:26:26.957Z,99541.09
2023-04-10T09:28:58.937Z,99543.22
2023-04-10T09:31:36.619Z,99540.16
2023-04-10T09:34:22.767Z,99544.09
2023-04-10T09:36:58.502Z,99538.53
2023-04-10T09:39:45.876Z,99537.13
2023-04-10T09:42:14.527Z,99529.16
2023-04-10T09:44:42.775Z,99524.38
2023-04-10T09:47:17.712Z,99524.81
2023-04-10T09:49:55.468Z,99515.91
2023-04-10T09:52:36.017Z,99519.44
2023-04-10T09:55:10.186Z,99518.75
2023-04-10T09:57:37.381Z,99521.09
2023-04-10T10:00:08.667Z,99519.06
2023-04-10T10:02:42.708Z,99511.78
2023-04-10T10:05:10.889Z,99504.94
2023-04-10T10:07:39.292Z,99501.63
2023-04-10T10:10:10.796Z,99496.59
2023-04-10T10:12:46.632Z,99501.38
2023-04-10T10:15:21.110Z,99504.88
2023-04-10T10:18:26.722Z,99491.31
2023-04-10T10:20:54.457Z,99501.63
2023-04-10T10:23:22.860Z,99503.06
2023-04-10T10:25:51.227Z,99497.59
2023-04-10T10:28:19.423Z,99498.91
2023-04-10T10:30:48.496Z,99510.47
2023-04-10T10:33:15.819Z,99501.13
2023-04-10T10:35:43.707Z,99516.13
2023-04-10T10:38:11.047Z,99510.91
2023-04-10T10:40:55.695Z,99521.19
2023-04-10T10:43:46.699Z,99518.47
2023-04-10T10:46:20.804Z,99509.50
2023-04-10T10:48:58.485Z,99510.69
2023-04-10T10:51:48.341Z,99502.38
2023-04-10T10:54:32.251Z,99512.94
2023-04-10T10:57:05.878Z,99494.09
2023-04-10T10:59:48.348Z,99480.97
2023-04-10T11:02:20.046Z,99487.28
2023-04-10T11:04:49.022Z,99488.28
2023-04-10T11:07:17.248Z,99483.81
2023-04-10T11:09:52.109Z,99480.31
2023-04-10T11:12:26.358Z,99484.50
2023-04-10T11:15:05.422Z,99479.78
2023-04-10T11:17:52.099Z,99476.97
2023-04-10T11:20:22.375Z,99480.31
2023-04-10T11:23:12.263Z,99491.66
2023-04-10T11:25:53.401Z,99477.53
2023-04-10T11:28:32.479Z,99467.72
2023-04-10T11:31:20.159Z,99452.91
2023-04-10T11:34:08.494Z,99458.53
2023-04-10T11:36:39.454Z,99450.00
2023-04-10T11:39:09.271Z,99449.84
2023-04-10T11:41:38.061Z,99435.19
2023-04-10T11:44:10.883Z,99429.84
2023-04-10T11:46:39.530Z,99431.66
2023-04-10T11:49:10.155Z,99422.47
2023-04-10T11:51:38.878Z,99416.03
2023-04-10T11:54:13.938Z,99401.34
2023-04-10T11:56:42.868Z,99421.22
2023-04-10T11:59:20.135Z,99417.28
2023-04-10T12:01:47.727Z,99424.97
2023-04-10T12:04:19.663Z,99426.38
2023-04-10T12:06:54.082Z,99425.56
2023-04-10T12:09:22.065Z,99430.88
2023-04-10T12:11:51.191Z,99429.19
2023-04-10T12:14:18.503Z,99429.34
2023-04-10T12:16:46.668Z,99424.97
2023-04-10T12:19:15.205Z,99423.28
2023-04-10T12:21:45.483Z,99422.88
2023-04-10T12:24:13.425Z,99423.88
2023-04-10T12:26:49.937Z,99426.66
2023-04-10T12:29:17.048Z,99432.81
2023-04-10T12:31:44.158Z,99428.63
2023-04-10T12:34:18.765Z,99416.44
2023-04-10T12:36:53.770Z,99426.22
2023-04-10T12:39:25.238Z,99427.19
2023-04-10T12:41:52.514Z,99417.41
2023-04-10T12:44:21.013Z,99404.81
2023-04-10T12:46:48.358Z,99398.41
2023-04-10T12:49:19.297Z,99406.78
2023-04-10T12:51:53.744Z,99402.00
2023-04-10T12:54:31.976Z,99391.09
2023-04-10T12:57:02.733Z,99392.63
2023-04-10T12:59:31.052Z,99388.00
2023-04-10T13:01:58.558Z,99388.84
2023-04-10T13:04:25.987Z,99375.72
2023-04-10T13:06:53.241Z,99382.84
2023-04-10T13:09:20.599Z,99372.47
2023-04-10T13:11:49.632Z,99362.84
2023-04-10T13:14:18.253Z,99372.63
2023-04-10T13:16:45.486Z,99369.81
2023-04-10T13:19:13.417Z,99367.19
2023-04-10T13:21:40.550Z,99372.63
2023-04-10T13:24:07.783Z,99363.06
2023-04-10T13:26:34.990Z,99354.25
2023-04-10T13:29:02.324Z,99355.75
2023-04-10T13:31:29.602Z,99340.28
2023-04-10T13:33:56.808Z,99328.53
2023-04-10T13:36:24.087Z,99347.69
2023-04-10T13:38:51.602Z,99340.72
2023-04-10T13:41:18.851Z,99343.53
2023-04-10T13:43:45.843Z,99320.00
2023-04-10T13:46:12.958Z,99339.03
2023-04-10T13:48:41.760Z,99339.59
2023-04-10T13:51:09.624Z,99334.69
2023-04-10T13:53:37.277Z,99329.09
2023-04-10T13:56:05.108Z,99335.13
2023-04-10T13:58:34.879Z,99329.78
2023-04-10T14:01:02.771Z,99333.47
2023-04-10T14:03:30.101Z,99328.41
2023-04-10T14:05:57.395Z,99330.06
2023-04-10T14:08:24.669Z,99325.16
2023-04-10T14:10:51.927Z,99318.47
2023-04-10T14:13:19.673Z,99323.78
2023-04-10T14:15:47.309Z,99327.41
2023-04-10T14:18:17.956Z,99317.22
2023-04-10T14:20:46.013Z,99323.66
2023-04-10T14:23:18.753Z,99316.97
2023-04-10T14:25:46.529Z,99314.00
2023-04-10T14:28:18.321Z,99316.09
2023-04-10T14:30:50.397Z,99322.94
2023-04-10T14:33:20.032Z,99319.44
2023-04-10T14:35:48.371Z,99314.41
2023-04-10T14:38:18.831Z,99314.13
2023-04-10T14:40:49.072Z,99313.16
2023-04-10T14:43:17.172Z,99297.88
2023-04-10T14:45:44.745Z,99309.22
2023-04-10T14:48:13.457Z,99314.25
2023-04-10T14:50:40.982Z,99321.81
2023-04-10T14:53:10.203Z,99313.84
2023-04-10T14:55:37.889Z,99315.38
2023-04-10T14:58:07.278Z,99319.56
2023-04-10T15:00:34.373Z,99315.94
2023-04-10T15:03:01.836Z,99318.31
2023-04-10T15:05:29.400Z,99314.66
2023-04-10T15:07:56.884Z,99321.94
2023-04-10T15:10:24.312Z,99313.56
2023-04-10T15:12:51.633Z,99303.22
2023-04-10T15:15:19.344Z,99304.34
2023-04-10T15:17:46.790Z,99313.44
2023-04-10T15:20:14.792Z,99313.84
2023-04-10T15:22:43.433Z,99307.28
2023-04-10T15:25:12.542Z,99311.59
2023-04-10T15:27:39.922Z,99302.66
2023-04-10T15:30:07.713Z,99304.34
2023-04-10T15:32:38.452Z,99295.50
2023-04-10T15:35:06.618Z,99302.66
2023-04-10T15:37:36.736Z,99299.84
2023-04-10T15:40:07.178Z,99307.53
2023-04-10T15:42:35.289Z,99311.91
2023-04-10T15:45:03.819Z,99308.97
2023-04-10T15:47:32.758Z,99325.75
2023-04-10T15:50:01.402Z,99318.88
2023-04-10T15:52:30.083Z,99325.28
2023-04-10T15:54:57.813Z,99317.59
2023-04-10T15:57:25.198Z,99318.84
2023-04-10T15:59:54.817Z,99318.31
2023-04-10T16:02:22.027Z,99319.41
2023-04-10T16:04:50.323Z,99311.16
2023-04-10T16:07:17.529Z,99316.88
2023-04-10T16:09:44.705Z,99325.53
2023-04-10T16:12:13.300Z,99321.66
2023-04-10T16:14:40.956Z,99319.16
2023-04-10T16:17:08.301Z,99323.66
2023-04-10T16:19:35.481Z,99327.00
2023-04-10T16:22:02.842Z,99330.66
2023-04-10T16:24:30.317Z,99327.28
2023-04-10T16:26:59.181Z,99336.94
2023-04-10T16:29:26.686Z,99340.16
2023-04-10T16:31:54.099Z,99338.47
2023-04-10T16:34:21.804Z,99339.06
2023-04-10T16:36:48.958Z,99347.72
2023-04-10T16:39:16.416Z,99344.22
2023-04-10T16:41:44.498Z,99337.38
2023-04-10T16:44:11.727Z,99343.81
2023-04-10T16:46:38.973Z,99334.69
2023-04-10T16:49:06.480Z,99331.19
2023-04-10T16:51:33.769Z,99336.69
2023-04-10T16:54:00.886Z,99343.66
2023-04-10T16:56:28.547Z,99345.75
2023-04-10T16:58:56.203Z,99350.66
2023-04-10T17:01:28.019Z,99341.78
2023-04-10T17:03:55.684Z,99344.56
2023-04-10T17:06:24.026Z,99354.81
2023-04-10T17:08:51.386Z,99356.34
2023-04-10T17:11:20.689Z,99356.03
2023-04-10T17:13:48.282Z,99353.63
2023-04-10T17:16:16.376Z,99364.84
2023-04-10T17:18:43.993Z,99364.56
2023-04-10T17:21:12.930Z,99364.22
2023-04-10T17:23:40.826Z,99359.34
2023-04-10T17:26:13.621Z,99370.00
2023-04-10T17:28:41.738Z,99369.53
2023-04-10T17:31:09.349Z,99353.41
2023-04-10T17:33:36.554Z,99368.97
2023-04-10T17:36:03.975Z,99373.16
2023-04-10T17:38:31.190Z,99377.19
2023-04-10T17:40:58.575Z,99372.72
2023-04-10T17:43:27.218Z,99383.19
2023-04-10T17:45:54.432Z,99368.22
2023-04-10T17:48:21.706Z,99371.56
2023-04-10T17:50:49.858Z,99383.91
2023-04-10T17:53:17.398Z,99385.88
2023-04-10T17:55:46.192Z,99384.78
2023-04-10T17:58:14.467Z,99384.50
2023-04-10T18:00:43.722Z,99381.53
2023-04-10T18:03:11.095Z,99386.72
2023-04-10T18:05:40.225Z,99374.25
2023-04-10T18:08:09.057Z,99377.88
2023-04-10T18:10:37.578Z,99390.06
2023-04-10T18:13:05.228Z,99389.25
2023-04-10T18:15:32.872Z,99384.72
2023-04-10T18:18:00.054Z,99394.88
2023-04-10T18:20:27.428Z,99392.88
2023-04-10T18:22:55.527Z,99398.22
2023-04-10T18:25:22.742Z,99399.91
2023-04-10T18:28:09.745Z,99402.56
2023-04-10T18:30:39.496Z,99389.53
2023-04-10T18:33:10.689Z,99398.78
2023-04-10T18:35:38.507Z,99405.13
2023-04-10T18:38:05.864Z,99396.81
2023-04-10T18:40:35.092Z,99410.56
2023-04-10T18:43:02.430Z,99411.41
2023-04-10T18:45:30.421Z,99416.75
2023-04-10T18:47:57.682Z,99417.59
2023-04-10T18:50:28.591Z,99418.13
2023-04-10T18:52:56.070Z,99428.47
2023-04-10T18:55:23.314Z,99421.63
2023-04-10T18:57:50.594Z,99433.34
2023-04-10T19:00:18.169Z,99426.47
2023-04-10T19:02:45.681Z,99429.53
2023-04-10T19:05:15.110Z,99435.97
2023-04-10T19:07:49.838Z,99429.22
2023-04-10T19:10:24.361Z,99425.13
2023-04-10T19:12:53.859Z,99426.34
2023-04-10T19:15:21.204Z,99427.41
2023-04-10T19:17:48.567Z,99427.81
2023-04-10T19:20:16.581Z,99424.56
2023-04-10T19:23:04.685Z,99424.78
2023-04-10T19:25:33.822Z,99423.50
2023-04-10T19:28:03.534Z,99425.69
2023-04-10T19:30:30.898Z,99427.91
2023-04-10T19:32:58.891Z,99433.63
2023-04-10T19:35:27.781Z,99434.34
2023-04-10T19:38:01.909Z,99429.69
2023-04-10T19:40:31.664Z,99443.44
2023-04-10T19:43:02.397Z,99433.97
2023-04-10T19:45:30.273Z,99445.50
2023-04-10T19:47:57.871Z,99442.81
2023-04-10T19:50:33.700Z,99437.19
2023-04-10T19:53:04.273Z,99441.38
2023-04-10T19:55:32.363Z,99439.53
2023-04-10T19:57:59.749Z,99443.88
2023-04-10T20:00:28.695Z,99449.38
2023-04-10T20:02:57.700Z,99452.72
2023-04-10T20:05:29.731Z,99460.75
2023-04-10T20:07:58.857Z,99469.13
2023-04-10T20:10:26.763Z,99464.63
2023-04-10T20:12:54.301Z,99467.97
2023-04-10T20:15:22.147Z,99462.34
2023-04-10T20:17:49.883Z,99461.50
2023-04-10T20:20:18.780Z,99464.03
2023-04-10T20:22:46.531Z,99459.38
2023-04-10T20:25:13.936Z,99471.56
2023-04-10T20:27:41.701Z,99474.91
2023-04-10T20:30:09.686Z,99469.19
2023-04-10T20:32:37.618Z,99464.84
2023-04-10T20:35:07.461Z,99466.84
2023-04-10T20:37:35.677Z,99464.63
2023-04-10T20:40:03.479Z,99464.63
2023-04-10T20:42:30.850Z,99465.78
2023-04-10T20:44:59.467Z,99465.09
2023-04-10T20:47:27.458Z,99461.72
2023-04-10T20:49:57.364Z,99463.53
2023-04-10T20:52:26.096Z,99461.72
2023-04-10T20:54:53.659Z,99459.34
2023-04-10T20:57:21.597Z,99463.03
2023-04-10T20:59:49.615Z,99456.00
2023-04-10T21:02:18.997Z,99461.03
2023-04-10T21:04:46.946Z,99457.63
2023-04-10T21:07:15.435Z,99463.69
2023-04-10T21:09:42.991Z,99460.22
2023-04-10T21:12:10.576Z,99457.03
2023-04-10T21:14:39.011Z,99461.13
2023-04-10T21:17:07.646Z,99464.63
2023-04-10T21:19:36.077Z,99463.13
2023-04-10T21:22:07.690Z,99467.59
2023-04-10T21:24:35.384Z,99463.13
2023-04-10T21:27:03.635Z,99457.38
2023-04-10T21:29:31.699Z,99464.78
2023-04-10T21:31:58.893Z,99463.78
2023-04-10T21:34:26.551Z,99462.09
2023-04-10T21:36:54.792Z,99464.78
2023-04-10T21:39:21.937Z,99461.41
2023-04-10T21:41:49.224Z,99469.41
2023-04-10T21:44:16.506Z,99459.34
2023-04-10T21:46:43.748Z,99461.88
2023-04-10T21:49:11.081Z,99463.31
2023-04-10T21:51:38.420Z,99462.63
2023-04-10T21:54:05.770Z,99464.56
2023-04-10T21:56:33.566Z,99458.56
2023-04-10T21:59:02.346Z,99455.22
2023-04-10T22:01:30.201Z,99454.81
2023-04-10T22:03:58.250Z,99461.41
2023-04-10T22:06:25.765Z,99465.09
2023-04-10T22:08:53.432Z,99465.38
2023-04-10T22:11:21.403Z,99471.97
2023-04-10T22:13:48.796Z,99460.63
2023-04-10T22:16:16.893Z,99458.41
2023-04-10T22:18:44.045Z,99464.59
2023-04-10T22:21:14.185Z,99462.22
2023-04-10T22:23:41.902Z,99459.00
2023-04-10T22:26:09.092Z,99459.44
2023-04-10T22:28:36.167Z,99464.06
2023-04-10T22:31:03.225Z,99467.72
2023-04-10T22:33:33.370Z,99475.00
2023-04-10T22:36:00.633Z,99476.94
2023-04-10T22:38:27.682Z,99490.59
2023-04-10T22:40:55.538Z,99496.88
2023-04-10T22:43:22.534Z,99497.84
2023-04-10T22:45:49.591Z,99501.81
2023-04-10T22:48:16.758Z,99507.13
2023-04-10T22:50:43.831Z,99510.09
2023-04-10T22:53:11.624Z,99516.53
2023-04-10T22:55:39.859Z,99524.97
2023-04-10T22:58:07.469Z,99522.88
2023-04-10T23:00:34.958Z,99521.91
2023-04-10T23:03:02.936Z,99519.69
2023-04-10T23:05:30.127Z,99521.50
2023-04-10T23:07:58.430Z,99525.00
2023-04-10T23:10:25.471Z,99528.50
2023-04-10T23:12:52.420Z,99528.31
2023-04-10T23:15:19.374Z,99530.56
2023-04-10T23:17:46.343Z,99527.44
2023-04-10T23:20:13.603Z,99523.50
2023-04-10T23:22:40.655Z,99527.44
2023-04-10T23:25:07.922Z,99518.19
2023-04-10T23:27:34.882Z,99518.34
2023-04-10T23:30:02.543Z,99517.06
2023-04-10T23:32:29.700Z,99521.09
2023-04-10T23:34:56.746Z,99523.19
2023-04-10T23:37:23.701Z,99525.41
2023-04-10T23:39:50.722Z,99535.44
2023-04-10T23:42:17.752Z,99537.56
2023-04-10T23:44:44.716Z,99543.16
2023-04-10T23:47:11.924Z,99543.66
2023-04-10T23:49:38.977Z,99548.28
2023-04-10T23:52:06.004Z,99553.00
2023-04-10T23:54:33.014Z,99541.84
2023-04-10T23:57:00.937Z,99545.56
2023-04-10T23:59:28.021Z,99546.81
